Time;durP1;ratioP1;P1;durP2;ratioP2;P2;SDS_P1;SDS_P2;PMS_P1;PMS_P2;Temp;Humidity;BMP_temperature;BMP_pressure;BME280_temperature;BME280_humidity;BME280_pressure;Samples;Min_cycle;Max_cycle;Signal;HPM_P1;HPM_P2
2024/03/10 00:02:11;;;;;;;34.55;12.20;;;;;;;5.07;100.00;100026.63;6249569;28;20045;-72
2024/03/10 00:05:13;;;;;;;25.45;12.10;;;;;;;4.99;100.00;100025.28;6249718;28;20049;-72
2024/03/10 00:08:14;;;;;;;31.92;12.40;;;;;;;5.04;100.00;100016.38;6249608;28;20072;-72
2024/03/10 00:11:17;;;;;;;29.83;12.45;;;;;;;5.08;100.00;100028.31;6249943;28;20358;-72
2024/03/10 00:14:20;;;;;;;26.42;10.70;;;;;;;5.09;100.00;100027.44;6254110;28;20073;-72
2024/03/10 00:17:21;;;;;;;27.23;12.10;;;;;;;5.08;100.00;100030.09;6254050;28;20075;-72
2024/03/10 00:20:23;;;;;;;34.33;11.82;;;;;;;5.01;100.00;100019.09;6253851;28;20192;-72
2024/03/10 00:23:24;;;;;;;31.60;12.45;;;;;;;4.97;100.00;100020.13;6253700;28;20049;-72
2024/03/10 00:26:27;;;;;;;33.83;12.30;;;;;;;5.01;100.00;100020.84;6253605;28;20509;-72
2024/03/10 00:29:29;;;;;;;30.60;12.88;;;;;;;4.86;100.00;100014.53;6252991;28;20108;-72
2024/03/10 00:32:31;;;;;;;33.28;12.80;;;;;;;4.85;100.00;100012.81;6253722;28;20049;-72
2024/03/10 00:35:33;;;;;;;28.20;11.85;;;;;;;4.96;100.00;100023.66;6253340;28;20061;-72
2024/03/10 00:38:34;;;;;;;30.55;12.52;;;;;;;4.94;100.00;100017.66;6253654;28;20494;-72
2024/03/10 00:41:36;;;;;;;29.50;12.18;;;;;;;4.94;100.00;100012.44;6252794;28;20043;-72
2024/03/10 00:44:39;;;;;;;33.60;14.40;;;;;;;4.94;100.00;100020.25;6252935;28;20055;-72
2024/03/10 00:47:41;;;;;;;25.92;11.15;;;;;;;4.90;100.00;100025.66;6253301;28;20049;-72
2024/03/10 00:50:42;;;;;;;27.73;12.32;;;;;;;4.92;100.00;100018.66;6252426;28;20049;-72
2024/03/10 00:53:43;;;;;;;28.80;11.80;;;;;;;4.91;100.00;100017.81;6253240;28;20060;-72
2024/03/10 00:56:45;;;;;;;23.67;10.98;;;;;;;4.91;100.00;100024.78;6252740;28;20060;-72
2024/03/10 00:59:47;;;;;;;32.42;12.82;;;;;;;4.81;100.00;100019.94;6252588;28;20442;-72
2024/03/10 01:02:50;;;;;;;27.20;11.93;;;;;;;4.81;100.00;100021.66;6252873;28;20053;-72
2024/03/10 01:05:52;;;;;;;26.40;11.65;;;;;;;4.83;100.00;100019.88;6252851;28;20124;-72
2024/03/10 01:08:53;;;;;;;28.45;12.48;;;;;;;4.80;100.00;100018.22;6242475;28;20124;-72
2024/03/10 01:11:55;;;;;;;34.38;12.18;;;;;;;4.75;100.00;100019.34;6244478;28;20049;-72
2024/03/10 01:14:58;;;;;;;31.63;12.57;;;;;;;4.77;100.00;100017.53;6249050;28;20133;-72
2024/03/10 01:17:59;;;;;;;31.17;11.70;;;;;;;4.76;100.00;100008.00;6240341;28;20050;-72
2024/03/10 01:21:01;;;;;;;35.58;13.80;;;;;;;4.77;100.00;100005.34;6252088;28;20056;-72
2024/03/10 01:24:03;;;;;;;32.85;12.98;;;;;;;4.76;100.00;100003.63;6251741;28;20057;-72
2024/03/10 01:27:05;;;;;;;25.65;11.70;;;;;;;4.74;100.00;99995.06;6252359;28;20183;-72
2024/03/10 01:30:10;;;;;;;33.03;12.48;;;;;;;4.71;100.00;99999.53;6251660;28;20045;-72
2024/03/10 01:33:11;;;;;;;31.40;13.90;;;;;;;4.67;100.00;100000.56;6228705;28;20045;-72
2024/03/10 01:36:12;;;;;;;29.60;12.50;;;;;;;4.66;100.00;99991.94;6227226;28;20050;-72
2024/03/10 01:39:14;;;;;;;27.98;12.35;;;;;;;4.62;100.00;99992.97;6227424;28;20065;-72
2024/03/10 01:42:15;;;;;;;24.50;12.25;;;;;;;4.55;100.00;99987.16;6227317;28;20042;-72
2024/03/10 01:45:18;;;;;;;29.52;11.57;;;;;;;4.51;100.00;99983.00;6227088;28;20045;-72
2024/03/10 01:48:20;;;;;;;29.70;11.60;;;;;;;4.52;100.00;99976.88;6227302;28;20470;-71
2024/03/10 01:51:22;;;;;;;29.02;12.43;;;;;;;4.47;100.00;99978.81;6226557;28;20050;-72
2024/03/10 01:54:28;;;;;;;31.58;14.27;;;;;;;4.43;100.00;99985.06;6227028;28;20046;-72
2024/03/10 01:57:30;;;;;;;35.28;13.20;;;;;;;4.46;100.00;99984.09;6226983;28;20129;-72
2024/03/10 02:00:36;;;;;;;28.38;12.55;;;;;;;4.46;100.00;99984.94;6226712;28;20046;-72
2024/03/10 02:03:39;;;;;;;35.85;12.95;;;;;;;4.39;100.00;99987.84;6227166;28;20133;-71
2024/03/10 02:06:43;;;;;;;31.65;12.88;;;;;;;4.40;100.00;99982.56;6226776;28;20183;-72
2024/03/10 02:09:46;;;;;;;31.75;13.95;;;;;;;4.43;100.00;99985.06;6226174;28;20187;-73
2024/03/10 02:12:47;;;;;;;30.42;11.63;;;;;;;4.32;100.00;99992.47;6226764;28;20050;-72
2024/03/10 02:16:01;;;;;;;36.13;13.77;;;;;;;4.35;100.00;99992.31;6226544;28;20061;-73
2024/03/10 02:19:02;;;;;;;37.72;14.60;;;;;;;4.30;100.00;99989.91;6226320;28;20075;-73
2024/03/10 02:22:07;;;;;;;38.13;14.68;;;;;;;4.24;100.00;99984.94;6226284;28;20105;-73
2024/03/10 02:25:12;;;;;;;34.08;14.13;;;;;;;4.28;100.00;99981.31;6226370;28;20053;-73
2024/03/10 02:28:23;;;;;;;32.50;13.57;;;;;;;4.16;100.00;99987.00;6226327;28;20060;-72
2024/03/10 02:48:03;;;;;;;33.22;12.65;;;;;;;4.04;100.00;99969.28;6300217;28;20052;-76
2024/03/10 02:51:06;;;;;;;34.83;13.55;;;;;;;4.08;100.00;99973.44;6299482;28;20044;-76
2024/03/10 02:54:07;;;;;;;47.42;15.45;;;;;;;4.08;100.00;99974.28;6300057;28;20076;-76
2024/03/10 02:57:09;;;;;;;33.58;12.98;;;;;;;4.05;100.00;99958.84;6299695;28;20459;-78
2024/03/10 03:00:13;;;;;;;35.22;13.80;;;;;;;4.08;100.00;99958.69;6299658;28;20056;-77
2024/03/10 03:03:14;;;;;;;34.75;13.27;;;;;;;4.08;100.00;99953.50;6299882;28;20497;-77
2024/03/10 03:06:16;;;;;;;29.45;13.68;;;;;;;3.96;100.00;99947.94;6300041;28;20048;-76
2024/03/10 03:09:20;;;;;;;38.00;14.75;;;;;;;3.92;100.00;99947.22;6299251;28;20460;-76
2024/03/10 03:12:21;;;;;;;40.88;15.80;;;;;;;4.00;100.00;99952.13;6299904;28;20349;-76
2024/03/10 03:15:24;;;;;;;40.20;15.43;;;;;;;4.01;100.00;99954.66;6299694;28;20052;-76
2024/03/10 03:18:25;;;;;;;37.67;15.32;;;;;;;4.00;100.00;99946.94;6299772;28;20186;-76
2024/03/10 03:21:27;;;;;;;38.00;14.73;;;;;;;3.90;100.00;99946.41;6288200;28;20049;-76
2024/03/10 03:24:28;;;;;;;36.35;13.88;;;;;;;3.90;100.00;99942.97;6286034;28;20052;-76
2024/03/10 03:27:30;;;;;;;32.75;14.93;;;;;;;3.92;100.00;99942.03;6264804;28;20049;-76
2024/03/10 03:30:33;;;;;;;38.60;15.80;;;;;;;3.92;100.00;99942.03;6276976;28;20048;-76
2024/03/10 03:33:34;;;;;;;36.42;15.57;;;;;;;3.93;100.00;99946.31;6274893;28;20049;-76
2024/03/10 03:36:35;;;;;;;39.50;15.63;;;;;;;3.91;100.00;99952.47;6268921;28;20422;-77
2024/03/10 03:39:37;;;;;;;39.20;14.95;;;;;;;3.85;100.00;99945.75;6274361;28;20045;-76
2024/03/10 03:42:38;;;;;;;41.50;15.65;;;;;;;3.81;100.00;99952.84;6274401;28;20056;-76
2024/03/10 03:45:41;;;;;;;39.47;16.15;;;;;;;3.71;100.00;99948.88;6274532;28;20067;-77
2024/03/10 03:48:42;;;;;;;40.10;14.35;;;;;;;3.67;100.00;99943.84;6278932;28;20052;-76
2024/03/10 03:51:43;;;;;;;36.53;16.23;;;;;;;3.71;100.00;99937.63;6279259;28;20045;-76
2024/03/10 03:54:45;;;;;;;43.60;16.02;;;;;;;3.68;100.00;99942.94;6278976;28;20056;-76
2024/03/10 03:57:46;;;;;;;42.25;14.55;;;;;;;3.75;100.00;99950.47;6279201;28;20049;-76
2024/03/10 04:00:49;;;;;;;42.60;16.90;;;;;;;3.75;100.00;99955.66;6278467;28;20071;-76
2024/03/10 04:03:50;;;;;;;44.33;17.52;;;;;;;3.75;100.00;99947.84;6279389;28;20095;-76
2024/03/10 04:06:51;;;;;;;39.08;15.70;;;;;;;3.72;100.00;99942.75;6278867;28;20045;-76
2024/03/10 04:09:53;;;;;;;36.35;14.75;;;;;;;3.73;100.00;99934.09;6278461;28;20044;-77
2024/03/10 04:12:54;;;;;;;35.22;15.10;;;;;;;3.66;100.00;99947.38;6278990;28;20053;-76
2024/03/10 04:15:57;;;;;;;41.05;15.95;;;;;;;3.65;100.00;99943.91;6278448;28;20056;-76
2024/03/10 04:18:59;;;;;;;43.58;15.18;;;;;;;3.69;100.00;99937.72;6278424;28;20053;-76
2024/03/10 04:22:00;;;;;;;41.97;15.05;;;;;;;3.73;100.00;99943.63;6278504;28;20049;-77
2024/03/10 04:25:02;;;;;;;45.55;17.95;;;;;;;3.71;100.00;99941.06;6278644;28;20049;-76
2024/03/10 04:28:03;;;;;;;45.40;17.40;;;;;;;3.66;100.00;99936.97;6278451;28;20056;-76
2024/03/10 04:31:06;;;;;;;38.78;17.20;;;;;;;3.68;100.00;99933.41;6278064;28;20049;-76
2024/03/10 04:34:09;;;;;;;40.88;16.27;;;;;;;3.72;100.00;99934.13;6278429;28;20049;-76
2024/03/10 04:37:12;;;;;;;48.90;17.33;;;;;;;3.65;100.00;99928.34;6278172;28;20053;-76
2024/03/10 04:40:16;;;;;;;46.20;17.70;;;;;;;3.59;100.00;99928.56;6277699;28;20183;-76
2024/03/10 04:43:17;;;;;;;35.85;15.15;;;;;;;3.63;100.00;99922.34;6278155;28;20327;-77
2024/03/10 04:46:20;;;;;;;46.42;15.93;;;;;;;3.58;100.00;99918.22;6277979;28;20049;-76
2024/03/10 04:49:22;;;;;;;49.05;18.88;;;;;;;3.58;100.00;99921.66;6277413;28;20365;-76
2024/03/10 04:52:23;;;;;;;47.28;17.42;;;;;;;3.59;100.00;99904.31;6277837;28;20440;-76
2024/03/10 04:55:24;;;;;;;43.55;18.40;;;;;;;3.56;100.00;99902.72;6277750;28;20049;-76
2024/03/10 04:58:27;;;;;;;44.13;17.38;;;;;;;3.47;100.00;99903.06;6276895;28;20358;-76
2024/03/10 05:01:30;;;;;;;44.92;17.90;;;;;;;3.49;100.00;99901.22;6277271;28;20045;-76
2024/03/10 05:04:31;;;;;;;40.67;15.95;;;;;;;3.43;100.00;99904.06;6277665;28;20056;-76
2024/03/10 05:07:33;;;;;;;49.72;17.50;;;;;;;3.49;100.00;99901.22;6277548;28;20059;-76
2024/03/10 05:10:34;;;;;;;40.55;16.23;;;;;;;3.50;100.00;99908.16;6277206;28;20444;-76
2024/03/10 05:13:36;;;;;;;45.30;17.50;;;;;;;3.47;100.00;99908.25;6277431;28;20539;-76
2024/03/10 05:16:39;;;;;;;47.60;17.90;;;;;;;3.46;100.00;99906.56;6277065;28;20131;-77
2024/03/10 05:19:41;;;;;;;49.08;17.83;;;;;;;3.48;100.00;99900.38;6276983;28;20140;-76
2024/03/10 05:22:43;;;;;;;47.17;17.45;;;;;;;3.52;100.00;99898.53;6277189;28;20186;-76
2024/03/10 05:25:45;;;;;;;41.80;17.33;;;;;;;3.55;100.00;99895.81;6277035;28;20380;-76
2024/03/10 05:28:46;;;;;;;47.45;17.33;;;;;;;3.47;100.00;99903.06;6276610;28;20349;-77
2024/03/10 05:31:49;;;;;;;49.00;17.60;;;;;;;3.34;100.00;99889.69;6277080;28;20052;-76
2024/03/10 05:34:56;;;;;;;51.22;19.23;;;;;;;3.38;100.00;99893.00;6276106;28;20132;-76
2024/03/10 05:37:57;;;;;;;45.22;18.10;;;;;;;3.38;100.00;99888.66;6277135;28;20051;-76
2024/03/10 05:40:59;;;;;;;44.53;18.40;;;;;;;3.38;100.00;99886.06;6284431;28;20135;-77
2024/03/10 05:44:00;;;;;;;47.65;17.92;;;;;;;3.37;100.00;99881.78;6276828;28;20353;-76
2024/03/10 05:47:04;;;;;;;48.33;19.42;;;;;;;3.34;100.00;99873.25;6276444;28;20055;-76
2024/03/10 05:50:06;;;;;;;53.22;19.60;;;;;;;3.40;100.00;99871.25;6276242;28;20049;-77
2024/03/10 05:53:08;;;;;;;50.58;19.85;;;;;;;3.35;100.00;99861.97;6276542;28;20100;-76
2024/03/10 05:56:10;;;;;;;46.00;17.02;;;;;;;3.35;100.00;99872.34;6276099;28;20100;-76
2024/03/10 05:59:11;;;;;;;50.38;19.75;;;;;;;3.30;100.00;99860.38;6276054;28;20074;-76
2024/03/10 06:02:14;;;;;;;47.05;18.90;;;;;;;3.23;100.00;99858.09;6276238;28;20041;-76
2024/03/10 06:05:15;;;;;;;42.47;17.98;;;;;;;3.23;100.00;99864.13;6275901;28;20357;-76
2024/03/10 06:08:17;;;;;;;45.53;19.33;;;;;;;3.25;100.00;99856.28;6276100;28;20061;-77
2024/03/10 06:11:18;;;;;;;53.30;19.77;;;;;;;3.29;100.00;99861.28;6275544;28;20045;-76
2024/03/10 06:14:20;;;;;;;47.08;19.90;;;;;;;3.38;100.00;99867.03;6275897;28;20169;-76
2024/03/10 06:17:30;;;;;;;57.45;20.05;;;;;;;3.39;100.00;99864.38;6276006;28;20048;-76
2024/03/10 06:27:10;;;;;;;55.15;21.10;;;;;;;3.40;100.00;99871.25;6277427;28;20056;-75
2024/03/10 06:30:12;;;;;;;65.22;20.65;;;;;;;3.45;100.00;99877.16;6280200;28;20049;-75
2024/03/10 06:33:15;;;;;;;52.47;19.73;;;;;;;3.51;100.00;99876.91;6271073;28;20056;-75
2024/03/10 06:36:16;;;;;;;53.28;20.60;;;;;;;3.53;100.00;99880.28;6283639;28;20060;-75
2024/03/10 06:39:19;;;;;;;44.78;18.90;;;;;;;3.55;100.00;99882.84;6274929;28;20385;-76
2024/03/10 06:42:22;;;;;;;55.00;20.33;;;;;;;3.56;100.00;99871.53;6274878;28;20127;-75
2024/03/10 06:45:25;;;;;;;51.92;19.80;;;;;;;3.61;100.00;99873.94;6276460;28;20453;-75
2024/03/10 06:48:28;;;;;;;48.42;19.33;;;;;;;3.62;100.00;99876.47;6275433;28;20136;-76
2024/03/10 06:51:29;;;;;;;50.25;18.65;;;;;;;3.70;100.00;99860.59;6274801;28;20493;-76
2024/03/10 06:54:31;;;;;;;51.00;20.02;;;;;;;3.79;100.00;99860.25;6275412;28;20045;-76
2024/03/10 06:57:32;;;;;;;57.40;20.10;;;;;;;3.75;100.00;99862.09;6275321;28;20056;-76
2024/03/10 07:00:35;;;;;;;47.22;18.50;;;;;;;3.77;100.00;99865.50;6274573;28;20041;-76
2024/03/10 07:03:37;;;;;;;49.38;19.20;;;;;;;3.81;100.00;99867.09;6275877;28;20045;-75
2024/03/10 07:06:39;;;;;;;50.60;20.02;;;;;;;3.77;100.00;99869.84;6291074;28;20069;-76
2024/03/10 07:09:43;;;;;;;52.50;19.75;;;;;;;3.80;100.00;99867.13;6275626;28;20127;-76
2024/03/10 07:12:44;;;;;;;54.65;20.92;;;;;;;3.87;100.00;99868.59;6299743;28;20044;-76
2024/03/10 07:15:46;;;;;;;48.88;19.35;;;;;;;3.89;100.00;99863.31;6300021;28;20040;-76
2024/03/10 07:18:49;;;;;;;51.92;20.70;;;;;;;4.00;100.00;99868.94;6299370;28;20502;-75
2024/03/10 07:21:51;;;;;;;50.53;21.25;;;;;;;4.07;100.00;99870.38;6284553;28;20352;-76
2024/03/10 07:24:52;;;;;;;57.38;22.55;;;;;;;4.16;100.00;99876.94;6284385;28;20131;-76
2024/03/10 07:27:53;;;;;;;51.75;18.88;;;;;;;4.16;100.00;99877.78;6283219;28;20052;-76
2024/03/10 07:30:55;;;;;;;54.05;20.80;;;;;;;4.21;100.00;99882.81;6279781;28;20059;-75
2024/03/10 07:33:58;;;;;;;49.53;18.63;;;;;;;4.16;100.00;99889.94;6279055;28;20037;-77
2024/03/10 07:37:00;;;;;;;54.53;20.80;;;;;;;4.16;100.00;99889.94;6284927;28;20051;-75
2024/03/10 07:40:02;;;;;;;56.13;20.92;;;;;;;4.24;100.00;99899.13;6267687;28;20353;-75
2024/03/10 07:43:04;;;;;;;43.10;18.33;;;;;;;4.26;100.00;99902.50;6300081;28;20452;-76
2024/03/10 07:46:07;;;;;;;53.03;20.67;;;;;;;4.41;100.00;99903.66;6295782;28;20044;-76
2024/03/10 07:49:10;;;;;;;45.72;18.88;;;;;;;4.47;100.00;99902.53;6304022;28;20052;-76
2024/03/10 07:52:11;;;;;;;45.63;18.92;;;;;;;4.50;100.00;99911.06;6304459;28;20458;-75
2024/03/10 07:55:13;;;;;;;45.95;19.23;;;;;;;4.62;100.00;99917.50;6304094;28;20127;-75
2024/03/10 07:58:14;;;;;;;52.25;21.65;;;;;;;4.65;100.00;99922.59;6286263;28;20052;-76
2024/03/10 08:01:16;;;;;;;53.45;21.55;;;;;;;4.71;100.00;99916.25;6288916;28;20047;-76
2024/03/10 08:04:19;;;;;;;46.08;19.27;;;;;;;4.75;100.00;99904.81;6278687;28;20050;-76
2024/03/10 08:07:21;;;;;;;52.65;21.15;;;;;;;4.83;100.00;99907.94;6283096;28;20049;-77
2024/03/10 08:10:23;;;;;;;59.00;21.48;;;;;;;4.83;100.00;99900.97;6274408;28;20357;-78
2024/03/10 08:13:24;;;;;;;59.05;23.85;;;;;;;4.94;100.00;99899.66;6270158;28;20132;-77
2024/03/10 08:16:26;;;;;;;49.83;19.13;;;;;;;5.03;100.00;99910.50;6290579;28;20065;-77
2024/03/10 08:19:28;;;;;;;59.58;20.48;;;;;;;5.09;100.00;99907.66;6302423;28;20044;-76
2024/03/10 08:22:30;;;;;;;48.65;19.48;;;;;;;5.20;100.00;99906.31;6303552;28;20043;-77
2024/03/10 08:25:31;;;;;;;47.25;19.52;;;;;;;5.23;100.00;99911.41;6302614;28;20040;-76
2024/03/10 08:28:33;;;;;;;49.42;19.67;;;;;;;5.31;100.00;99924.91;6301966;28;20392;-76
2024/03/10 08:31:34;;;;;;;51.35;19.98;;;;;;;5.45;100.00;99932.09;6302725;28;20044;-76
2024/03/10 08:34:37;;;;;;;50.40;19.25;;;;;;;5.50;100.00;99931.00;6301567;28;20067;-76
2024/03/10 08:37:40;;;;;;;49.10;20.08;;;;;;;5.61;100.00;99935.72;6303321;28;20048;-77
2024/03/10 08:40:42;;;;;;;45.80;18.85;;;;;;;5.78;100.00;99927.97;6302650;28;20055;-72
2024/03/10 08:43:44;;;;;;;42.47;18.67;;;;;;;5.93;100.00;99931.63;6301692;28;20053;-72
2024/03/10 08:46:46;;;;;;;47.30;19.25;;;;;;;5.93;100.00;99933.41;6301168;28;20049;-71
2024/03/10 08:49:48;;;;;;;49.85;19.15;;;;;;;5.94;100.00;99932.47;6301168;28;20436;-71
2024/03/10 08:52:50;;;;;;;43.17;18.65;;;;;;;6.01;100.00;99931.28;6301265;28;20045;-70
2024/03/10 08:55:51;;;;;;;50.33;19.92;;;;;;;6.07;100.00;99920.53;6301184;28;20352;-71
2024/03/10 08:58:53;;;;;;;40.47;18.65;;;;;;;6.23;100.00;99912.84;6301119;28;20052;-71
2024/03/10 09:01:54;;;;;;;40.35;17.42;;;;;;;6.20;100.00;99912.97;6301141;28;20364;-71
2024/03/10 09:04:57;;;;;;;43.72;18.77;;;;;;;6.27;100.00;99917.81;6300991;28;20044;-71
2024/03/10 09:07:58;;;;;;;39.30;17.77;;;;;;;6.45;100.00;99910.84;6301334;28;20051;-70
2024/03/10 09:11:05;;;;;;;34.33;16.45;;;;;;;6.60;100.00;99896.19;6300686;28;20459;-71
2024/03/10 09:14:07;;;;;;;49.75;18.95;;;;;;;6.63;100.00;99890.78;6301316;28;20041;-71
2024/03/10 09:17:10;;;;;;;38.38;17.10;;;;;;;6.68;100.00;99899.25;6299555;28;20506;-71
2024/03/10 09:20:13;;;;;;;40.30;16.33;;;;;;;6.82;100.00;99895.94;6300585;28;20485;-71
2024/03/10 09:23:15;;;;;;;42.45;17.13;;;;;;;6.90;100.00;99891.13;6300677;28;20486;-71
2024/03/10 09:26:16;;;;;;;39.20;16.95;;;;;;;7.07;100.00;99887.66;6300750;28;20460;-72
2024/03/10 09:29:21;;;;;;;41.20;17.67;;;;;;;7.16;100.00;99881.94;6300233;28;20437;-71
2024/03/10 09:32:26;;;;;;;38.78;17.30;;;;;;;7.19;100.00;99887.00;6300823;28;20049;-70
2024/03/10 09:35:34;;;;;;;39.92;17.73;;;;;;;7.21;100.00;99882.53;6300320;28;20053;-70
2024/03/10 09:38:35;;;;;;;38.20;16.48;;;;;;;7.37;100.00;99878.19;6300794;28;20049;-71
2024/03/10 09:41:37;;;;;;;34.58;15.43;;;;;;;7.42;100.00;99870.09;6293061;28;192507;-71
2024/03/10 09:44:38;;;;;;;35.30;15.52;;;;;;;7.63;100.00;99855.00;6300460;28;20318;-70
2024/03/10 09:47:41;;;;;;;42.03;18.13;;;;;;;7.69;100.00;99859.91;6301529;28;20044;-71
2024/03/10 09:50:48;;;;;;;40.92;17.30;;;;;;;7.71;100.00;99860.63;6300880;28;20048;-71
2024/03/10 09:53:50;;;;;;;34.65;16.48;;;;;;;7.75;100.00;99853.47;6301563;28;20036;-71
2024/03/10 09:56:52;;;;;;;38.25;16.92;;;;;;;7.85;100.00;99846.78;6301140;28;20104;-70
2024/03/10 09:59:54;;;;;;;38.25;16.60;;;;;;;7.98;100.00;99842.53;6300768;28;20048;-70
2024/03/10 10:02:59;;;;;;;35.72;16.60;;;;;;;7.96;100.00;99835.72;6300923;28;20360;-70
2024/03/10 10:06:08;;;;;;;37.10;16.08;;;;;;;8.13;100.00;99836.44;6300999;28;20048;-70
2024/03/10 10:09:10;;;;;;;37.50;16.63;;;;;;;8.06;100.00;99826.41;6300853;28;20456;-70
2024/03/10 10:12:13;;;;;;;34.13;14.65;;;;;;;8.20;100.00;99817.75;6301487;28;20127;-71
2024/03/10 10:15:17;;;;;;;38.92;15.35;;;;;;;8.18;100.00;99802.16;6301327;28;20052;-69
2024/03/10 10:18:19;;;;;;;34.80;15.95;;;;;;;8.29;100.00;99802.34;6301613;28;20044;-70
2024/03/10 10:21:25;;;;;;;37.28;16.10;;;;;;;8.41;100.00;99811.31;6300508;28;20064;-71
2024/03/10 10:24:26;;;;;;;31.40;15.50;;;;;;;8.37;100.00;99812.41;6300812;28;20124;-70
2024/03/10 10:27:28;;;;;;;38.00;16.73;;;;;;;8.46;100.00;99806.63;6300637;28;20044;-70
2024/03/10 10:30:30;;;;;;;35.15;14.40;;;;;;;8.56;100.00;99793.81;6299908;28;20052;-70
2024/03/10 10:33:32;;;;;;;33.95;15.70;;;;;;;8.64;100.00;99796.84;6284950;28;20544;-70
2024/03/10 10:36:37;;;;;;;32.45;16.02;;;;;;;8.57;100.00;99801.59;6275790;28;20048;-70
2024/03/10 10:39:39;;;;;;;31.63;15.50;;;;;;;8.79;100.00;99800.28;6276003;28;20381;-71
2024/03/10 10:42:41;;;;;;;40.05;16.90;;;;;;;8.93;100.00;99797.66;6275417;28;20131;-71
2024/03/10 10:45:43;;;;;;;29.15;14.15;;;;;;;8.90;100.00;99800.47;6275391;28;20048;-70
2024/03/10 10:48:45;;;;;;;36.63;15.63;;;;;;;9.01;100.00;99795.41;6274681;28;20075;-71
2024/03/10 10:51:50;;;;;;;30.15;14.60;;;;;;;9.02;100.00;99804.13;6275135;28;20202;-71
2024/03/10 10:54:51;;;;;;;28.33;14.27;;;;;;;9.02;100.00;99807.56;6274911;28;20037;-70
2024/03/10 10:57:57;;;;;;;32.83;15.27;;;;;;;8.97;100.00;99804.41;6274409;28;20437;-71
2024/03/10 11:01:04;;;;;;;36.10;15.35;;;;;;;9.09;100.00;99795.78;6274471;28;20049;-70
2024/03/10 11:04:11;;;;;;;34.33;15.05;;;;;;;9.16;100.00;99809.34;6275310;28;20048;-71
2024/03/10 11:07:15;;;;;;;33.92;13.60;;;;;;;9.20;100.00;99792.47;6274985;28;20060;-72
2024/03/10 11:10:39;;;;;;;30.88;14.80;;;;;;;9.18;100.00;99796.16;6274562;28;20449;-70
2024/03/10 11:13:41;;;;;;;30.55;14.18;;;;;;;9.26;100.00;99789.47;6274796;28;20118;-71
2024/03/10 11:16:42;;;;;;;33.55;15.82;;;;;;;9.27;100.00;99799.03;6274658;28;20412;-71
2024/03/10 11:19:46;;;;;;;30.63;15.00;;;;;;;9.29;100.00;99796.31;6274552;28;20045;-71
2024/03/10 11:22:52;;;;;;;32.30;15.27;;;;;;;9.33;100.00;99813.53;6274732;28;20352;-73
2024/03/10 11:25:54;;;;;;;32.88;14.77;;;;;;;9.39;100.00;99808.72;6274539;28;20053;-70
2024/03/10 11:28:57;;;;;;;29.00;14.68;;;;;;;9.48;100.00;99801.22;6274471;28;20056;-73
2024/03/10 11:31:58;;;;;;;32.95;15.27;;;;;;;9.58;100.00;99802.31;6274897;28;20053;-72
2024/03/10 11:35:06;;;;;;;31.63;15.05;;;;;;;9.61;100.00;99799.50;6274280;28;20048;-72
2024/03/10 11:38:09;;;;;;;30.20;13.57;;;;;;;9.81;100.00;99778.06;6274922;28;20086;-71
2024/03/10 11:41:11;;;;;;;32.05;15.13;;;;;;;9.88;100.00;99774.06;6274000;28;20135;-70
2024/03/10 11:44:13;;;;;;;35.05;15.25;;;;;;;9.90;100.00;99764.34;6274729;28;20115;-72
2024/03/10 11:47:15;;;;;;;30.88;14.55;;;;;;;10.01;100.00;99768.03;6274636;28;20048;-71
2024/03/10 11:50:17;;;;;;;26.75;13.23;;;;;;;9.91;100.00;99758.13;6274094;28;20084;-69
2024/03/10 11:53:21;;;;;;;30.25;13.00;;;;;;;9.97;100.00;99750.78;6274239;28;20044;-72
2024/03/10 11:56:23;;;;;;;32.58;14.50;;;;;;;10.10;100.00;99733.28;6274281;28;20098;-72
2024/03/10 11:59:25;;;;;;;30.15;13.52;;;;;;;10.10;100.00;99726.25;6274097;28;20455;-72
2024/03/10 12:02:26;;;;;;;29.55;13.90;;;;;;;10.10;100.00;99734.13;6274259;28;20049;-70
2024/03/10 12:05:28;;;;;;;30.13;13.65;;;;;;;10.05;100.00;99736.22;6274162;28;20040;-72
2024/03/10 12:08:32;;;;;;;30.27;13.65;;;;;;;10.10;100.00;99733.28;6277456;28;20045;-70
2024/03/10 12:11:34;;;;;;;26.70;14.65;;;;;;;10.20;100.00;99729.06;6278527;28;20151;-70
2024/03/10 12:14:37;;;;;;;29.00;13.70;;;;;;;10.33;100.00;99729.94;6278527;28;20179;-70
2024/03/10 12:17:38;;;;;;;27.15;13.02;;;;;;;10.37;100.00;99735.84;6278943;28;20048;-70
2024/03/10 12:20:40;;;;;;;27.77;13.05;;;;;;;10.43;100.00;99740.66;6278149;28;20049;-71
2024/03/10 12:23:44;;;;;;;29.27;13.35;;;;;;;10.41;100.00;99737.31;6278655;28;20433;-71
2024/03/10 12:26:46;;;;;;;26.55;13.00;;;;;;;10.41;100.00;99743.41;6278223;28;20077;-72
2024/03/10 12:29:48;;;;;;;28.35;13.00;;;;;;;10.50;100.00;99746.34;6278164;28;20182;-72
2024/03/10 12:32:50;;;;;;;29.30;14.00;;;;;;;10.55;100.00;99763.47;6275603;28;20460;-72
2024/03/10 12:35:52;;;;;;;29.10;13.85;;;;;;;10.70;100.00;99758.94;6278615;28;20068;-72
2024/03/10 12:38:55;;;;;;;30.23;13.90;;;;;;;10.71;100.00;99757.97;6297301;28;20090;-72
2024/03/10 12:41:56;;;;;;;28.95;13.13;;;;;;;10.62;100.00;99762.09;6283774;28;20056;-72
2024/03/10 12:44:58;;;;;;;30.27;13.50;;;;;;;10.75;100.00;99762.06;6268186;28;20041;-72
2024/03/10 12:47:59;;;;;;;29.40;14.23;;;;;;;10.71;100.00;99765.84;6274079;28;20049;-71
2024/03/10 12:51:01;;;;;;;29.73;13.93;;;;;;;10.60;100.00;99774.50;6285771;28;20393;-72
2024/03/10 12:54:05;;;;;;;31.48;13.57;;;;;;;10.55;100.00;99771.34;6285577;28;20040;-72
2024/03/10 12:57:06;;;;;;;25.73;13.70;;;;;;;10.44;100.00;99752.00;6289191;28;20454;-72
2024/03/10 13:00:22;;;;;;;32.47;13.60;;;;;;;10.47;100.00;99755.28;6302332;28;20051;-70
2024/03/10 13:03:24;;;;;;;27.88;13.75;;;;;;;10.48;100.00;99753.47;6286439;28;20052;-72
2024/03/10 13:06:25;;;;;;;32.60;14.40;;;;;;;10.48;100.00;99742.97;6285900;28;20419;-71
2024/03/10 13:09:28;;;;;;;28.20;13.52;;;;;;;10.61;100.00;99743.81;6277252;28;20041;-70
2024/03/10 13:12:30;;;;;;;30.00;13.98;;;;;;;10.53;100.00;99746.94;6277748;28;20048;-72
2024/03/10 13:15:31;;;;;;;33.78;14.88;;;;;;;10.59;100.00;99741.28;6270485;28;20044;-72
2024/03/10 13:18:32;;;;;;;29.90;13.95;;;;;;;10.58;100.00;99733.50;6284792;28;20183;-72
2024/03/10 13:21:36;;;;;;;29.80;13.65;;;;;;;10.63;100.00;99718.28;6276667;28;20095;-71
2024/03/10 13:24:39;;;;;;;28.52;13.68;;;;;;;10.68;100.00;99723.22;6276967;28;20056;-71
2024/03/10 13:27:41;;;;;;;33.25;15.35;;;;;;;10.69;100.00;99706.50;6277341;28;20437;-70
2024/03/10 13:30:42;;;;;;;27.98;13.23;;;;;;;10.66;100.00;99694.41;6278437;28;20046;-71
2024/03/10 13:33:44;;;;;;;27.05;13.27;;;;;;;10.75;100.00;99677.16;6285358;28;20048;-70
2024/03/10 13:36:45;;;;;;;32.75;14.60;;;;;;;10.81;100.00;99666.19;6269832;28;20056;-70
2024/03/10 13:39:48;;;;;;;33.63;14.30;;;;;;;10.78;100.00;99676.94;6284960;28;20123;-72
2024/03/10 13:42:49;;;;;;;35.08;13.98;;;;;;;10.85;100.00;99659.75;6276664;28;20085;-72
2024/03/10 13:45:50;;;;;;;28.80;13.02;;;;;;;10.94;100.00;99664.34;6276703;28;20136;-73
2024/03/10 13:48:52;;;;;;;28.63;14.02;;;;;;;11.25;100.00;99656.88;6270148;28;20042;-72
2024/03/10 13:51:55;;;;;;;27.70;13.57;;;;;;;11.57;100.00;99657.94;6284719;28;20337;-72
2024/03/10 13:54:59;;;;;;;29.52;14.32;;;;;;;11.87;100.00;99657.47;6276109;28;20132;-72
2024/03/10 13:58:00;;;;;;;31.95;14.50;;;;;;;12.21;100.00;99670.66;6276332;28;20433;-70
2024/03/10 14:01:04;;;;;;;38.80;13.52;;;;;;;12.45;100.00;99675.84;6275940;28;20049;-72
2024/03/10 14:04:05;;;;;;;29.13;13.00;;;;;;;12.97;100.00;99689.31;6276177;28;20080;-73
2024/03/10 14:07:08;;;;;;;26.08;12.77;;;;;;;13.05;100.00;99702.75;6276329;28;20056;-71
2024/03/10 14:10:11;;;;;;;27.25;13.40;;;;;;;12.78;100.00;99717.16;6275591;28;20452;-70
2024/03/10 14:13:16;;;;;;;26.50;12.82;;;;;;;12.85;100.00;99715.72;6276266;28;20041;-69
2024/03/10 14:16:17;;;;;;;27.98;13.65;;;;;;;12.65;100.00;99716.44;6275664;28;20464;-71
2024/03/10 14:19:18;;;;;;;34.33;13.80;;;;;;;12.39;100.00;99715.81;6275626;28;20048;-71